Terminal Aerodrome Forecast
Issued by NWS

Home | Current Version | Previous Version | Text Only | Print | Product List | Glossary On
Versions: 1 2 3 4 5 6 7 8 9 10 11 12
000
FTUS45 KPIH 290500
TAFSUN
TAF
KSUN 290524Z 2906/3006 VRB06KT P6SM VCSH SCT070 OVC100
     FM291200 15008KT P6SM VCSH SCT025 OVC050
      TEMPO 2914/2918 3SM -SHSN SCT010 OVC030
      AMD LTD TO CLD VIS AND WIND TIL 291400=

USA.gov is the U.S. government's official web portal to all federal, state and local government web resources and services.